Terminal Aerodrome Forecast
Issued by NWS

Home | Current Version | Previous Version | Text Only | Print | Product List | Glossary On
Versions: 1 2 3 4 5 6 7 8 9 10 11 12 13
335
FTUS43 KSGF 260520
TAFBBG
TAF
KBBG 260520Z 2606/2706 00000KT P6SM SCT250
     FM261200 00000KT P6SM VCTS BKN200CB
     FM261500 00000KT P6SM BKN200 PROB30 2615/2616 4SM -TSRA
      OVC040CB
     FM262100 15006KT P6SM BKN250 PROB30 2621/2622 4SM -TSRA
      OVC040CB=

USA.gov is the U.S. government's official web portal to all federal, state and local government web resources and services.